Time;durP1;ratioP1;P1;durP2;ratioP2;P2;SDS_P1;SDS_P2;PMS_P1;PMS_P2;Temp;Humidity;BMP_temperature;BMP_pressure;BME280_temperature;BME280_humidity;BME280_pressure;Samples;Min_cycle;Max_cycle;Signal;HPM_P1;HPM_P2
2022/10/09 00:01:18;;;;;;;3.33;2.67;;;;;;;10.51;81.03;102580.16;5043539;28;20029;-75
2022/10/09 00:03:47;;;;;;;2.92;2.20;;;;;;;10.50;81.15;102577.56;5078810;28;20423;-75
2022/10/09 00:06:28;;;;;;;4.07;2.55;;;;;;;10.49;81.00;102571.44;5076269;28;20016;-75
2022/10/09 00:08:53;;;;;;;4.00;2.30;;;;;;;10.48;81.35;102572.34;5078461;28;20032;-74
2022/10/09 00:11:24;;;;;;;3.15;2.28;;;;;;;10.47;81.17;102572.34;5059829;28;20032;-75
2022/10/09 00:13:50;;;;;;;3.50;2.40;;;;;;;10.45;81.29;102572.38;5043715;28;20094;-75
2022/10/09 00:16:17;;;;;;;2.33;2.13;;;;;;;10.45;81.34;102574.13;5076114;28;20266;-75
2022/10/09 00:18:44;;;;;;;2.58;2.25;;;;;;;10.43;81.34;102571.53;5060385;28;20055;-75
2022/10/09 00:21:36;;;;;;;2.92;2.22;;;;;;;10.43;81.38;102578.53;5078220;28;20343;-75
2022/10/09 00:24:03;;;;;;;2.30;2.10;;;;;;;10.42;80.94;102579.41;5073162;28;20049;-75
2022/10/09 00:26:28;;;;;;;2.28;1.80;;;;;;;10.40;81.37;102568.94;5075781;28;20359;-75
2022/10/09 00:28:54;;;;;;;3.72;2.20;;;;;;;10.41;81.54;102572.44;5077642;28;20060;-75
2022/10/09 00:31:20;;;;;;;2.88;2.20;;;;;;;10.39;81.26;102567.22;5059438;28;20262;-75
2022/10/09 00:33:46;;;;;;;3.50;2.08;;;;;;;10.38;81.32;102576.81;5078330;28;20214;-75
2022/10/09 00:36:14;;;;;;;2.28;2.08;;;;;;;10.37;81.38;102582.94;5075169;28;20070;-75
2022/10/09 00:38:40;;;;;;;2.30;2.10;;;;;;;10.36;81.62;102570.72;5077621;28;20059;-75
2022/10/09 00:41:06;;;;;;;3.80;2.20;;;;;;;10.35;81.30;102563.78;5076445;28;20044;-75
2022/10/09 00:43:38;;;;;;;2.38;2.05;;;;;;;10.34;81.22;102572.50;5077203;28;20305;-75
2022/10/09 00:46:04;;;;;;;2.17;1.98;;;;;;;10.33;81.38;102565.53;5059890;28;20324;-75
2022/10/09 00:48:30;;;;;;;5.00;2.03;;;;;;;10.33;81.37;102569.88;5042590;28;20078;-75
2022/10/09 00:50:59;;;;;;;2.10;1.90;;;;;;;10.31;81.37;102569.91;5060119;28;20024;-75
2022/10/09 00:53:28;;;;;;;2.55;1.77;;;;;;;10.30;81.56;102559.44;5077476;28;20327;-75
2022/10/09 00:55:54;;;;;;;1.40;1.30;;;;;;;10.29;81.39;102562.94;5070120;28;20336;-75
2022/10/09 00:58:21;;;;;;;2.67;1.80;;;;;;;10.27;81.29;102562.94;5057997;28;20024;-75
2022/10/09 01:04:09;;;;;;;1.42;1.33;;;;;;;10.24;81.32;102562.13;5073731;28;20035;-74
2022/10/09 01:06:45;;;;;;;2.30;1.60;;;;;;;10.23;81.44;102563.00;5045071;28;20316;-75
2022/10/09 01:09:16;;;;;;;1.88;1.77;;;;;;;10.22;81.28;102564.75;5059483;28;20036;-75
2022/10/09 01:11:52;;;;;;;2.40;1.80;;;;;;;10.21;81.35;102564.78;5067344;28;20036;-75
2022/10/09 01:14:24;;;;;;;1.75;1.65;;;;;;;10.18;81.34;102563.91;5055345;28;20402;-75
2022/10/09 01:17:00;;;;;;;1.75;1.42;;;;;;;10.17;81.42;102567.44;5057136;28;20533;-75
2022/10/09 01:20:17;;;;;;;1.48;1.38;;;;;;;10.14;81.47;102556.97;5056586;28;20043;-75
2022/10/09 01:23:02;;;;;;;3.38;1.75;;;;;;;10.13;81.35;102555.28;5032368;28;20049;-74
2022/10/09 01:26:03;;;;;;;1.60;1.50;;;;;;;10.11;81.27;102553.53;5057347;28;20082;-75
2022/10/09 01:28:29;;;;;;;2.17;1.85;;;;;;;10.10;81.64;102551.81;5058039;28;20044;-74
2022/10/09 01:31:01;;;;;;;2.40;2.20;;;;;;;10.09;81.55;102550.06;5076537;28;20262;-75
2022/10/09 01:33:29;;;;;;;3.40;1.90;;;;;;;10.07;81.57;102547.47;5061583;28;20091;-74
2022/10/09 01:35:55;;;;;;;3.05;2.15;;;;;;;10.05;81.65;102538.78;5055357;28;20057;-74
2022/10/09 01:38:23;;;;;;;2.35;2.15;;;;;;;10.04;81.47;102538.78;5056048;28;20025;-75
2022/10/09 01:40:51;;;;;;;2.38;2.08;;;;;;;10.04;81.49;102544.00;5056834;28;20017;-75
2022/10/09 01:43:17;;;;;;;4.67;1.87;;;;;;;10.02;81.54;102538.78;5038276;28;20040;-75
2022/10/09 01:45:44;;;;;;;3.42;1.88;;;;;;;10.01;81.83;102534.47;5055262;28;20033;-74
2022/10/09 01:48:23;;;;;;;2.42;2.00;;;;;;;9.99;81.47;102534.47;5056520;28;20033;-74
2022/10/09 01:50:56;;;;;;;2.75;1.95;;;;;;;9.98;81.74;102531.88;5055168;28;20021;-74
2022/10/09 01:53:23;;;;;;;2.25;1.80;;;;;;;9.97;81.68;102527.53;5057060;28;20029;-74
2022/10/09 01:56:13;;;;;;;2.45;1.88;;;;;;;9.96;81.68;102523.16;5038914;28;20041;-74
2022/10/09 01:58:58;;;;;;;2.05;1.67;;;;;;;9.95;82.00;102517.06;5056062;28;20028;-75
2022/10/09 02:01:25;;;;;;;3.38;1.90;;;;;;;9.94;81.92;102520.56;5055636;28;20389;-74
2022/10/09 02:03:53;;;;;;;2.83;1.80;;;;;;;9.92;81.50;102519.72;5039640;28;20033;-74
2022/10/09 02:06:19;;;;;;;1.85;1.60;;;;;;;9.91;81.70;102517.13;5075695;28;20297;-75
2022/10/09 02:08:49;;;;;;;3.35;1.67;;;;;;;9.90;81.78;102512.78;5058561;28;20032;-75
2022/10/09 02:11:15;;;;;;;2.63;1.88;;;;;;;9.90;81.77;102515.41;5058039;28;20350;-73
2022/10/09 02:13:42;;;;;;;3.45;1.55;;;;;;;9.88;81.79;102512.78;5076134;28;20033;-73
2022/10/09 02:16:21;;;;;;;2.10;1.70;;;;;;;9.88;81.72;102510.19;5073755;28;20064;-73
2022/10/09 02:19:04;;;;;;;3.78;2.00;;;;;;;9.87;81.75;102510.19;5058049;28;20358;-73
2022/10/09 02:21:43;;;;;;;1.42;1.33;;;;;;;9.85;81.83;102504.09;5074957;28;20365;-73
2022/10/09 02:24:13;;;;;;;1.77;1.40;;;;;;;9.84;81.79;102503.25;5075982;28;20054;-73
2022/10/09 02:26:40;;;;;;;3.38;1.70;;;;;;;9.84;81.82;102499.75;5074585;28;20028;-73
2022/10/09 02:29:06;;;;;;;2.60;2.00;;;;;;;9.83;82.03;102495.41;5075872;28;20032;-73
2022/10/09 02:31:35;;;;;;;1.45;1.35;;;;;;;9.82;82.49;102494.53;5074718;28;20028;-73
2022/10/09 02:34:05;;;;;;;2.60;1.65;;;;;;;9.80;82.47;102491.94;5057446;28;20028;-73
2022/10/09 02:36:31;;;;;;;2.45;1.63;;;;;;;9.80;82.25;102497.19;5068671;28;20035;-73
2022/10/09 02:38:57;;;;;;;1.80;1.50;;;;;;;9.79;82.31;102495.44;5055781;28;20135;-73
2022/10/09 02:41:24;;;;;;;1.73;1.50;;;;;;;9.78;82.11;102492.84;5055155;28;20040;-73
2022/10/09 02:43:49;;;;;;;2.15;1.63;;;;;;;9.77;82.13;102491.97;5055896;28;20039;-73
2022/10/09 02:46:15;;;;;;;1.92;1.83;;;;;;;9.75;81.93;102485.91;5054554;28;20096;-73
2022/10/09 02:48:41;;;;;;;2.22;1.60;;;;;;;9.75;82.23;102490.25;5074175;28;20105;-73
2022/10/09 02:51:07;;;;;;;1.88;1.67;;;;;;;9.73;82.06;102490.28;5056858;28;20047;-73
2022/10/09 02:53:32;;;;;;;2.42;1.70;;;;;;;9.73;82.26;102489.41;5056527;28;20029;-73
2022/10/09 02:55:58;;;;;;;2.33;1.67;;;;;;;9.71;82.61;102489.41;5057536;28;20025;-73
2022/10/09 02:58:23;;;;;;;1.77;1.60;;;;;;;9.70;82.46;102486.84;5053315;28;20376;-73
2022/10/09 03:00:52;;;;;;;3.95;2.00;;;;;;;9.70;82.46;102486.84;5055608;28;20035;-73
2022/10/09 03:03:19;;;;;;;2.75;1.45;;;;;;;9.68;82.13;102483.34;5055113;28;20344;-73
2022/10/09 03:05:45;;;;;;;1.35;1.23;;;;;;;9.67;82.41;102486.84;5053899;28;20071;-73
2022/10/09 03:08:11;;;;;;;1.88;1.67;;;;;;;9.66;82.20;102482.50;5057056;28;20303;-73
2022/10/09 03:10:37;;;;;;;1.73;1.55;;;;;;;9.65;82.05;102480.78;5055271;28;20240;-73
2022/10/09 03:13:03;;;;;;;1.33;1.23;;;;;;;9.63;82.37;102477.31;5055252;28;20096;-73
2022/10/09 03:15:32;;;;;;;2.60;1.45;;;;;;;9.62;82.33;102476.44;5054794;28;20075;-73
2022/10/09 03:17:58;;;;;;;;;;;;;;;9.61;82.16;102466.88;5040668;28;20043;-73
2022/10/09 03:20:23;;;;;;;2.20;1.50;;;;;;;9.59;82.20;102471.25;5053821;28;19908;-73
2022/10/09 03:22:49;;;;;;;1.33;1.23;;;;;;;9.58;82.11;102474.72;5078928;28;20040;-73
2022/10/09 03:25:14;;;;;;;1.40;1.30;;;;;;;9.56;82.27;102471.28;5060346;28;20233;-73
2022/10/09 03:27:40;;;;;;;1.92;1.35;;;;;;;9.55;82.25;102470.41;5079291;28;20040;-73
2022/10/09 03:30:06;;;;;;;2.33;1.48;;;;;;;9.54;82.37;102468.66;5060787;28;20111;-73
2022/10/09 03:32:31;;;;;;;2.35;1.65;;;;;;;9.53;82.54;102466.06;5040397;28;20077;-73
2022/10/09 03:34:57;;;;;;;1.73;1.35;;;;;;;9.52;82.47;102469.56;5061323;28;20028;-73
2022/10/09 03:37:22;;;;;;;3.33;1.98;;;;;;;9.50;82.70;102461.75;5078764;28;20189;-73
2022/10/09 03:39:47;;;;;;;1.90;1.58;;;;;;;9.50;82.96;102463.50;5077680;28;20383;-75
2022/10/09 03:42:13;;;;;;;2.70;1.90;;;;;;;9.50;82.88;102461.75;5077714;28;20039;-72
2022/10/09 03:44:38;;;;;;;4.05;2.25;;;;;;;9.50;83.01;102466.13;5078225;28;20029;-72
2022/10/09 03:47:04;;;;;;;4.63;1.65;;;;;;;9.50;83.22;102464.34;5060863;28;20091;-72
2022/10/09 03:49:30;;;;;;;2.95;1.70;;;;;;;9.49;83.37;102466.97;5060469;28;20028;-72
2022/10/09 03:51:55;;;;;;;1.63;1.52;;;;;;;9.49;83.46;102464.38;5059032;28;20040;-72
2022/10/09 03:54:21;;;;;;;2.83;1.90;;;;;;;9.48;83.85;102467.84;5077988;28;20063;-72
2022/10/09 03:56:46;;;;;;;1.63;1.52;;;;;;;9.48;84.19;102465.25;5060796;28;20040;-72
2022/10/09 03:59:11;;;;;;;2.22;1.60;;;;;;;9.48;84.01;102467.84;5060339;28;20081;-72
2022/10/09 04:01:37;;;;;;;1.80;1.70;;;;;;;9.47;83.97;102469.63;5059677;28;20035;-72
2022/10/09 04:04:02;;;;;;;3.25;1.70;;;;;;;9.46;84.07;102465.28;5078798;28;20290;-72
2022/10/09 04:06:27;;;;;;;2.67;1.70;;;;;;;9.45;84.45;102466.16;5077888;28;20026;-72
2022/10/09 04:08:53;;;;;;;1.92;1.63;;;;;;;9.46;84.44;102469.63;5067449;28;20044;-72
2022/10/09 04:11:18;;;;;;;1.42;1.33;;;;;;;9.45;84.50;102460.91;5056374;28;20068;-72
2022/10/09 04:13:44;;;;;;;3.28;1.48;;;;;;;9.45;84.36;102460.06;5057188;28;20029;-72
2022/10/09 04:16:11;;;;;;;2.63;1.70;;;;;;;9.46;84.40;102464.38;5060352;28;20074;-72
2022/10/09 04:18:42;;;;;;;3.83;1.95;;;;;;;9.46;84.74;102467.00;5060439;28;20196;-72
2022/10/09 04:21:08;;;;;;;1.75;1.50;;;;;;;9.45;84.68;102467.91;5078145;28;20020;-72
2022/10/09 04:23:33;;;;;;;2.40;1.70;;;;;;;9.44;84.99;102460.94;5056326;28;20070;-73
2022/10/09 04:25:59;;;;;;;2.47;1.58;;;;;;;9.44;84.98;102474.91;5060961;28;20324;-72
2022/10/09 04:28:26;;;;;;;2.15;1.70;;;;;;;9.43;85.01;102467.06;5077509;28;20269;-72
2022/10/09 04:30:51;;;;;;;1.50;1.40;;;;;;;9.43;84.90;102461.81;5077845;28;20083;-72
2022/10/09 04:33:17;;;;;;;2.22;1.67;;;;;;;9.43;85.32;102459.22;5040715;28;20071;-73
2022/10/09 04:35:44;;;;;;;2.65;1.60;;;;;;;9.41;85.24;102460.09;5077746;28;20040;-72
2022/10/09 04:38:10;;;;;;;1.77;1.65;;;;;;;9.41;85.34;102451.38;5077968;28;20036;-72
2022/10/09 04:40:36;;;;;;;1.70;1.60;;;;;;;9.39;85.26;102447.91;5076609;28;20247;-72
2022/10/09 04:43:01;;;;;;;1.45;1.20;;;;;;;9.40;85.28;102453.13;5056645;28;20222;-72
2022/10/09 04:45:27;;;;;;;1.45;1.35;;;;;;;9.40;85.54;102444.41;5058518;28;20049;-72
2022/10/09 04:47:52;;;;;;;1.80;1.30;;;;;;;9.39;85.57;102443.53;5058022;28;20259;-73
2022/10/09 04:50:18;;;;;;;2.22;1.55;;;;;;;9.38;85.63;102444.41;5039095;28;20343;-73
2022/10/09 04:52:43;;;;;;;1.65;1.27;;;;;;;9.38;85.24;102444.41;5057501;28;20237;-72
2022/10/09 04:55:09;;;;;;;3.83;1.70;;;;;;;9.38;85.57;102440.94;5058576;28;20047;-72
2022/10/09 04:57:34;;;;;;;2.90;1.70;;;;;;;9.36;85.49;102447.94;5039156;28;20033;-72
2022/10/09 04:59:59;;;;;;;1.73;1.20;;;;;;;9.37;85.61;102447.06;5057475;28;20403;-72
2022/10/09 05:02:25;;;;;;;2.15;1.30;;;;;;;9.36;85.80;102448.78;5039246;28;20032;-72
2022/10/09 05:04:50;;;;;;;1.85;1.30;;;;;;;9.36;85.84;102446.19;5049980;28;20044;-72
2022/10/09 05:07:16;;;;;;;1.52;1.42;;;;;;;9.35;85.70;102443.56;5055990;28;20064;-75
2022/10/09 05:09:41;;;;;;;2.60;1.95;;;;;;;9.33;85.88;102448.84;5059363;28;20232;-72
2022/10/09 05:12:06;;;;;;;3.42;1.98;;;;;;;9.33;85.97;102446.22;5063492;28;20103;-72
2022/10/09 05:14:32;;;;;;;1.77;1.60;;;;;;;9.32;85.76;102441.00;5055191;28;20031;-72
2022/10/09 05:17:01;;;;;;;3.55;1.70;;;;;;;9.32;85.76;102443.63;5055818;28;20036;-72
2022/10/09 05:19:27;;;;;;;2.83;1.80;;;;;;;9.31;86.09;102442.75;5056638;28;20036;-73
2022/10/09 05:21:53;;;;;;;3.30;1.70;;;;;;;9.31;86.24;102442.75;5038790;28;20075;-72
2022/10/09 05:24:18;;;;;;;3.53;2.45;;;;;;;9.31;86.20;102434.03;5056432;28;20043;-72
2022/10/09 05:26:44;;;;;;;1.67;1.58;;;;;;;9.30;86.16;102446.25;5039325;28;20017;-72
2022/10/09 05:29:09;;;;;;;2.08;1.83;;;;;;;9.28;86.24;102445.41;5055542;28;20032;-72
2022/10/09 05:31:36;;;;;;;6.25;2.72;;;;;;;9.27;86.50;102438.44;5055289;28;20204;-72
2022/10/09 05:34:02;;;;;;;2.65;1.88;;;;;;;9.27;86.61;102442.81;5055275;28;20039;-72
2022/10/09 05:36:28;;;;;;;2.00;1.80;;;;;;;9.26;86.47;102439.31;5056143;28;20107;-72
2022/10/09 05:38:55;;;;;;;5.68;2.88;;;;;;;9.26;86.82;102446.28;5054886;28;20139;-72
2022/10/09 05:41:20;;;;;;;2.10;1.90;;;;;;;9.25;86.51;102441.94;5054749;28;20325;-72
2022/10/09 05:43:47;;;;;;;2.25;1.63;;;;;;;9.25;86.58;102439.34;5062191;28;20362;-73
2022/10/09 05:46:25;;;;;;;2.85;1.95;;;;;;;9.23;86.32;102444.56;5074847;28;20328;-73
2022/10/09 05:48:54;;;;;;;3.90;2.20;;;;;;;9.22;86.52;102448.94;5074334;28;20041;-72
2022/10/09 05:51:42;;;;;;;3.20;2.30;;;;;;;9.21;86.68;102444.59;5073935;28;20036;-73
2022/10/09 05:54:13;;;;;;;3.55;2.40;;;;;;;9.20;86.53;102442.88;5072963;28;20090;-75
2022/10/09 05:56:38;;;;;;;2.13;1.92;;;;;;;9.20;86.55;102444.59;5074447;28;20301;-72
2022/10/09 05:59:18;;;;;;;2.25;2.05;;;;;;;9.18;86.49;102436.75;5056429;28;20029;-72
2022/10/09 06:01:47;;;;;;;2.65;2.30;;;;;;;9.17;86.53;102440.28;5074799;28;20536;-72
2022/10/09 06:04:23;;;;;;;3.53;2.22;;;;;;;9.16;87.06;102441.13;5047072;28;20031;-73
2022/10/09 06:06:49;;;;;;;3.28;2.17;;;;;;;9.15;86.95;102442.03;5053557;28;20039;-72
2022/10/09 06:09:17;;;;;;;3.05;2.22;;;;;;;9.14;87.09;102436.81;5049118;28;20029;-72
2022/10/09 06:11:44;;;;;;;3.40;2.40;;;;;;;9.13;86.84;102438.56;5068834;28;20060;-73
2022/10/09 06:14:11;;;;;;;2.28;2.15;;;;;;;9.13;86.97;102432.47;5033122;28;20311;-73
2022/10/09 06:16:39;;;;;;;4.63;2.60;;;;;;;9.12;86.75;102434.22;5055397;28;20074;-73
2022/10/09 06:19:06;;;;;;;2.30;2.10;;;;;;;9.13;86.94;102441.19;5053189;28;20032;-73
2022/10/09 06:21:33;;;;;;;3.50;2.42;;;;;;;9.13;86.85;102435.06;5052421;28;20032;-72
2022/10/09 06:24:00;;;;;;;2.90;2.10;;;;;;;9.12;86.66;102434.22;5052646;28;20067;-73
2022/10/09 06:26:30;;;;;;;2.35;1.80;;;;;;;9.11;86.69;102429.00;5059718;28;20025;-75
2022/10/09 06:29:00;;;;;;;3.10;1.73;;;;;;;9.12;86.54;102435.97;5062613;28;20339;-73
2022/10/09 06:31:27;;;;;;;3.05;2.03;;;;;;;9.12;86.78;102443.81;5060641;28;20051;-73
2022/10/09 06:33:53;;;;;;;2.25;2.05;;;;;;;9.12;86.77;102433.34;5063330;28;20043;-73
2022/10/09 06:36:25;;;;;;;3.60;2.10;;;;;;;9.12;86.77;102439.44;5064895;28;20263;-73
2022/10/09 06:38:51;;;;;;;2.78;2.35;;;;;;;9.12;86.67;102444.66;5061114;28;20390;-73
2022/10/09 06:41:19;;;;;;;2.20;2.00;;;;;;;9.12;86.51;102441.19;5048356;28;20089;-73
2022/10/09 06:43:54;;;;;;;2.33;2.10;;;;;;;9.13;86.61;102442.91;5060092;28;20028;-73
2022/10/09 06:46:21;;;;;;;2.20;2.00;;;;;;;9.12;86.68;102444.66;5051887;28;20332;-73
2022/10/09 06:48:47;;;;;;;2.95;2.65;;;;;;;9.12;86.82;102444.66;5071826;28;20278;-73
2022/10/09 06:51:16;;;;;;;2.03;1.92;;;;;;;9.12;86.87;102443.81;5073139;28;20400;-73
2022/10/09 06:53:47;;;;;;;2.45;2.05;;;;;;;9.11;86.90;102448.16;5074121;28;20347;-73
2022/10/09 06:56:13;;;;;;;2.42;1.90;;;;;;;9.12;86.95;102449.03;5072581;28;20032;-73
2022/10/09 06:58:39;;;;;;;4.30;2.22;;;;;;;9.11;86.96;102440.31;5055466;28;20036;-73
2022/10/09 07:01:07;;;;;;;2.38;2.17;;;;;;;9.12;87.25;102446.44;5060993;28;20108;-73
2022/10/09 07:03:33;;;;;;;7.40;2.47;;;;;;;9.12;87.30;102439.44;5049118;28;20064;-73
2022/10/09 07:06:11;;;;;;;2.83;2.40;;;;;;;9.12;87.28;102438.59;5067638;28;20025;-73
2022/10/09 07:08:38;;;;;;;6.75;2.83;;;;;;;9.12;87.42;102436.84;5045319;28;20164;-73
2022/10/09 07:11:15;;;;;;;2.38;2.28;;;;;;;9.13;87.19;102443.81;5070967;28;20348;-73
2022/10/09 07:13:42;;;;;;;2.45;2.22;;;;;;;9.13;87.22;102449.03;5087908;28;20028;-73
2022/10/09 07:16:09;;;;;;;4.05;2.97;;;;;;;9.14;87.55;102447.28;5063322;28;20344;-73
2022/10/09 07:18:36;;;;;;;4.07;2.80;;;;;;;9.15;87.64;102452.50;5064441;28;20043;-73
2022/10/09 07:21:03;;;;;;;8.23;3.15;;;;;;;9.15;87.66;102444.66;5073398;28;20036;-73
2022/10/09 07:23:30;;;;;;;2.80;2.60;;;;;;;9.15;87.62;102447.28;5089222;28;20270;-73
2022/10/09 07:25:56;;;;;;;5.18;3.40;;;;;;;9.16;87.81;102453.34;5080798;28;20023;-73
2022/10/09 07:28:23;;;;;;;3.38;3.03;;;;;;;9.16;88.11;102438.53;5081430;28;20281;-73
2022/10/09 07:30:48;;;;;;;5.22;3.70;;;;;;;9.16;88.09;102446.38;5052172;28;20037;-73
2022/10/09 07:33:14;;;;;;;4.85;3.20;;;;;;;9.17;88.13;102439.41;5069226;28;20039;-73
2022/10/09 07:35:39;;;;;;;3.25;2.90;;;;;;;9.17;88.19;102440.28;5056094;28;20037;-73
2022/10/09 07:38:04;;;;;;;4.00;3.47;;;;;;;9.20;88.18;102444.59;5059385;28;20040;-73
2022/10/09 07:40:33;;;;;;;3.78;3.35;;;;;;;9.20;88.52;102441.97;5069809;28;20051;-73
2022/10/09 07:42:59;;;;;;;;;;;;;;;9.21;88.45;102444.59;5051629;28;20032;-73
2022/10/09 07:45:24;;;;;;;3.67;3.33;;;;;;;9.21;88.59;102438.50;5050879;28;19926;-73
2022/10/09 07:47:49;;;;;;;4.63;3.58;;;;;;;9.22;88.73;102442.84;5047826;28;20319;-73
2022/10/09 07:50:15;;;;;;;5.30;3.88;;;;;;;9.24;88.92;102438.47;5067964;28;20028;-73
2022/10/09 07:52:40;;;;;;;7.38;4.80;;;;;;;9.23;89.14;102437.59;5035656;28;20260;-73
2022/10/09 07:55:06;;;;;;;8.63;5.07;;;;;;;9.25;89.01;102439.34;5053363;28;20037;-73
2022/10/09 07:57:31;;;;;;;5.97;4.15;;;;;;;9.26;89.47;102438.44;5054104;28;20078;-73
2022/10/09 07:59:57;;;;;;;4.45;3.63;;;;;;;9.28;89.25;102432.34;5051588;28;20083;-73
2022/10/09 08:02:22;;;;;;;8.40;3.95;;;;;;;9.30;89.48;102434.94;5067060;28;20036;-73
2022/10/09 08:04:47;;;;;;;7.28;4.53;;;;;;;9.30;89.65;102435.78;5069151;28;20119;-73
2022/10/09 08:07:13;;;;;;;6.57;4.43;;;;;;;9.31;89.51;102434.91;5057600;28;20033;-73
2022/10/09 08:09:39;;;;;;;5.30;3.97;;;;;;;9.32;89.74;102431.41;5058436;28;20048;-73
2022/10/09 08:12:05;;;;;;;5.93;4.18;;;;;;;9.34;89.80;102428.78;5053812;28;20033;-73
2022/10/09 08:14:30;;;;;;;7.68;5.00;;;;;;;9.35;89.94;102434.00;5080006;28;20054;-73
2022/10/09 08:16:56;;;;;;;5.65;4.45;;;;;;;9.36;90.24;102427.03;5080800;28;20356;-73
2022/10/09 08:19:21;;;;;;;8.30;4.43;;;;;;;9.37;90.41;102429.63;5092668;28;20027;-73
2022/10/09 08:21:47;;;;;;;6.03;3.92;;;;;;;9.38;90.22;102433.09;5072930;28;20032;-73
2022/10/09 08:24:12;;;;;;;4.97;4.45;;;;;;;9.41;90.21;102430.47;5057936;28;20244;-73
2022/10/09 08:26:38;;;;;;;4.35;3.95;;;;;;;9.42;90.66;102429.56;5075907;28;20075;-73
2022/10/09 08:29:05;;;;;;;6.45;4.00;;;;;;;9.43;90.53;102428.69;5076262;28;20381;-73
2022/10/09 08:31:31;;;;;;;6.32;4.03;;;;;;;9.46;90.90;102428.66;5057632;28;20369;-73
2022/10/09 08:33:58;;;;;;;5.28;3.63;;;;;;;9.47;91.01;102424.28;5057933;28;20099;-73
2022/10/09 08:36:25;;;;;;;5.25;3.92;;;;;;;9.48;90.89;102429.50;5086455;28;20027;-73
2022/10/09 08:38:51;;;;;;;5.10;3.95;;;;;;;9.50;90.94;102417.28;5081112;28;20067;-73
2022/10/09 08:41:26;;;;;;;3.80;3.47;;;;;;;9.52;90.77;102418.13;5087261;28;20033;-73
2022/10/09 08:44:02;;;;;;;7.82;3.83;;;;;;;9.53;91.04;102417.25;5074346;28;20081;-73
2022/10/09 08:46:52;;;;;;;4.38;3.97;;;;;;;9.55;90.71;102411.97;5068700;28;20070;-73
2022/10/09 08:49:21;;;;;;;5.95;3.53;;;;;;;9.57;91.20;102413.72;5076680;28;20052;-73
2022/10/09 08:51:46;;;;;;;;;;;;;;;9.59;91.06;102408.47;5075847;28;20025;-73
2022/10/09 08:54:24;;;;;;;4.60;3.55;;;;;;;9.60;91.17;102405.84;5069330;28;20039;-73
2022/10/09 08:56:51;;;;;;;8.10;3.95;;;;;;;9.62;91.29;102405.81;5066068;28;20024;-73
2022/10/09 08:59:16;;;;;;;4.20;3.15;;;;;;;9.63;91.02;102407.53;5065319;28;20349;-73
2022/10/09 09:02:25;;;;;;;3.30;3.10;;;;;;;9.65;91.15;102405.78;5055670;28;20057;-73
2022/10/09 09:05:26;;;;;;;5.30;3.20;;;;;;;9.69;91.22;102411.84;5057994;28;20059;-73
2022/10/09 09:08:10;;;;;;;4.00;3.58;;;;;;;9.69;91.00;102402.22;5069821;28;20052;-73
2022/10/09 09:10:56;;;;;;;4.30;3.90;;;;;;;9.72;90.78;102396.97;5074582;28;20033;-73
2022/10/09 09:13:36;;;;;;;10.20;3.80;;;;;;;9.73;91.06;102395.22;5054960;28;20279;-73
2022/10/09 09:16:13;;;;;;;7.38;3.45;;;;;;;9.75;90.90;102396.06;5057063;28;20354;-72
2022/10/09 09:18:49;;;;;;;8.80;3.67;;;;;;;9.78;91.00;102389.03;5074076;28;20284;-72
2022/10/09 09:21:31;;;;;;;9.32;3.67;;;;;;;9.80;91.08;102382.06;5056505;28;20080;-72
2022/10/09 09:24:00;;;;;;;5.78;3.45;;;;;;;9.83;90.81;102380.28;5056007;28;20052;-72
2022/10/09 09:26:26;;;;;;;5.88;3.42;;;;;;;9.85;90.60;102379.38;5046548;28;20038;-72
2022/10/09 09:29:01;;;;;;;7.07;3.78;;;;;;;9.89;90.75;102377.56;5074337;28;20032;-75
2022/10/09 09:31:35;;;;;;;12.30;3.60;;;;;;;9.91;90.31;102373.19;5074165;28;20305;-73
2022/10/09 09:34:19;;;;;;;13.65;4.35;;;;;;;9.95;90.60;102372.25;5056816;28;20031;-73
2022/10/09 09:36:53;;;;;;;9.32;3.15;;;;;;;9.97;90.32;102373.97;5069715;28;20032;-73
2022/10/09 09:39:21;;;;;;;6.90;2.72;;;;;;;10.01;89.88;102363.47;5054115;28;20060;-73
2022/10/09 09:41:46;;;;;;;6.00;2.65;;;;;;;10.03;89.73;102367.78;5054704;28;20029;-73
2022/10/09 09:44:14;;;;;;;4.90;2.95;;;;;;;10.04;89.34;102359.06;5052689;28;20040;-73
2022/10/09 09:46:40;;;;;;;7.32;2.80;;;;;;;10.08;89.20;102360.75;5055975;28;20021;-75
2022/10/09 09:49:20;;;;;;;5.22;2.70;;;;;;;10.10;88.81;102351.09;5054206;28;20059;-73
2022/10/09 09:51:48;;;;;;;4.43;2.65;;;;;;;10.13;88.46;102347.56;5066149;28;20142;-73
2022/10/09 09:54:24;;;;;;;7.05;2.97;;;;;;;10.17;88.19;102352.75;5074907;28;20020;-73
2022/10/09 09:56:53;;;;;;;7.70;2.55;;;;;;;10.20;88.18;102346.59;5065890;28;20029;-73
2022/10/09 09:59:35;;;;;;;4.00;2.30;;;;;;;10.23;87.87;102337.84;5053478;28;20024;-75
2022/10/09 10:02:12;;;;;;;5.68;2.83;;;;;;;10.27;87.51;102335.13;5055628;28;20099;-73
2022/10/09 10:04:51;;;;;;;4.45;2.20;;;;;;;10.31;88.08;102333.38;5055370;28;20028;-73
2022/10/09 10:07:26;;;;;;;;;;;;;;;10.35;87.66;102330.69;5056054;28;20017;-73
2022/10/09 10:10:01;;;;;;;6.55;2.20;;;;;;;10.38;87.26;102333.25;5058520;28;19920;-73
2022/10/09 10:12:28;;;;;;;4.72;2.00;;;;;;;10.42;86.95;102327.97;5074192;28;20070;-73
2022/10/09 10:14:53;;;;;;;8.10;2.47;;;;;;;10.45;86.04;102318.28;5041702;28;20408;-73
2022/10/09 10:17:27;;;;;;;4.32;2.28;;;;;;;10.49;86.59;102327.81;5053885;28;20049;-73
2022/10/09 10:19:52;;;;;;;4.70;2.03;;;;;;;10.54;86.16;102327.75;5069248;28;20032;-73
2022/10/09 10:22:25;;;;;;;11.27;2.78;;;;;;;10.57;86.18;102310.25;5057356;28;20041;-73
2022/10/09 10:24:55;;;;;;;4.45;2.05;;;;;;;10.62;86.06;102310.16;5075901;28;20090;-73
2022/10/09 10:27:26;;;;;;;5.03;2.63;;;;;;;10.67;86.51;102310.06;5057292;28;20347;-73
2022/10/09 10:29:57;;;;;;;4.22;2.00;;;;;;;10.71;86.35;102314.38;5054100;28;20043;-73
2022/10/09 10:32:28;;;;;;;5.05;2.42;;;;;;;10.75;85.10;102310.78;5054364;28;20032;-73
2022/10/09 10:35:01;;;;;;;6.75;2.30;;;;;;;10.80;85.44;102311.56;5055798;28;20032;-73
2022/10/09 10:37:32;;;;;;;10.63;2.72;;;;;;;10.84;85.30;102301.91;5055289;28;20248;-73
2022/10/09 10:40:16;;;;;;;4.55;1.90;;;;;;;10.89;85.15;102292.22;5055168;28;20052;-73
2022/10/09 10:42:46;;;;;;;6.10;2.22;;;;;;;10.93;85.18;102297.38;5055808;28;20053;-73
2022/10/09 10:45:23;;;;;;;5.85;2.30;;;;;;;10.98;84.15;102299.03;5055355;28;20032;-73
2022/10/09 10:47:52;;;;;;;3.35;2.17;;;;;;;11.02;83.60;102292.84;5055511;28;20013;-73
2022/10/09 10:50:19;;;;;;;9.13;2.22;;;;;;;11.08;83.52;102287.50;5054650;28;20037;-73
2022/10/09 10:53:02;;;;;;;4.25;2.05;;;;;;;11.13;83.85;102275.13;5037635;28;20348;-73
2022/10/09 10:55:52;;;;;;;8.05;2.20;;;;;;;11.19;84.18;102275.03;5055089;28;20048;-73
2022/10/09 10:58:27;;;;;;;6.53;2.20;;;;;;;11.21;83.64;102265.34;5036851;28;20033;-73
2022/10/09 11:01:08;;;;;;;2.80;2.05;;;;;;;11.25;82.73;102255.66;5053701;28;20061;-73
2022/10/09 11:04:12;;;;;;;7.70;2.83;;;;;;;11.30;83.05;102256.44;5034648;28;20030;-73
2022/10/09 11:07:00;;;;;;;3.60;1.98;;;;;;;11.34;82.75;102247.59;5024409;28;20045;-73
2022/10/09 11:09:43;;;;;;;7.88;2.65;;;;;;;11.39;81.43;102243.13;5035001;28;20076;-73
2022/10/09 11:12:26;;;;;;;5.28;2.47;;;;;;;11.44;82.21;102237.78;5040683;28;20024;-73
2022/10/09 11:15:18;;;;;;;8.30;2.85;;;;;;;11.50;82.02;102242.91;5053737;28;20029;-73
2022/10/09 11:18:26;;;;;;;3.55;2.08;;;;;;;11.55;81.95;102235.78;5006661;28;20295;-75
2022/10/09 11:21:11;;;;;;;6.07;2.78;;;;;;;11.58;81.63;102233.09;5035880;28;20336;-73
2022/10/09 11:24:25;;;;;;;8.23;2.80;;;;;;;11.63;81.78;102227.75;5047033;28;20332;-73
2022/10/09 11:27:03;;;;;;;10.02;2.45;;;;;;;11.66;82.04;102225.03;5036451;28;20017;-73
2022/10/09 11:29:46;;;;;;;5.03;2.38;;;;;;;11.70;82.05;102222.31;5052683;28;20028;-73
2022/10/09 11:32:21;;;;;;;8.27;2.10;;;;;;;11.73;81.56;102208.25;5050984;28;20033;-73
2022/10/09 11:35:14;;;;;;;5.65;2.17;;;;;;;11.77;78.43;102209.03;5053027;28;20036;-73
2022/10/09 11:37:45;;;;;;;9.40;2.33;;;;;;;11.81;80.20;102206.31;5033796;28;20087;-73
2022/10/09 11:40:13;;;;;;;4.85;2.33;;;;;;;11.86;80.59;102208.81;5035328;28;20359;-73
2022/10/09 11:42:39;;;;;;;3.22;1.83;;;;;;;11.91;80.71;102201.72;5054202;28;20059;-73
2022/10/09 11:45:16;;;;;;;4.43;2.30;;;;;;;11.95;79.92;102198.16;5054556;28;20111;-73
2022/10/09 11:47:58;;;;;;;10.02;2.72;;;;;;;12.01;80.22;102197.13;5055961;28;20197;-73
2022/10/09 11:50:52;;;;;;;3.85;1.95;;;;;;;12.06;79.18;102192.59;5056221;28;20033;-73